sensor_id;sensor_type;location;lat;lon;timestamp;P1;durP1;ratioP1;P2;durP2;ratioP2
15071;SDS011;7635;56.696;13.002;2022-09-09T00:01:13;1.33;;;1.23;;
15071;SDS011;7635;56.696;13.002;2022-09-09T00:03:54;1.95;;;1.40;;
15071;SDS011;7635;56.696;13.002;2022-09-09T00:06:27;1.17;;;1.10;;
15071;SDS011;7635;56.696;13.002;2022-09-09T00:08:59;1.00;;;1.00;;
15071;SDS011;7635;56.696;13.002;2022-09-09T00:11:32;1.67;;;1.40;;
15071;SDS011;7635;56.696;13.002;2022-09-09T00:14:12;1.45;;;1.38;;
15071;SDS011;7635;56.696;13.002;2022-09-09T00:16:44;3.58;;;1.48;;
15071;SDS011;7635;56.696;13.002;2022-09-09T00:19:20;1.90;;;1.40;;
15071;SDS011;7635;56.696;13.002;2022-09-09T00:21:53;1.27;;;1.20;;
15071;SDS011;7635;56.696;13.002;2022-09-09T00:24:27;1.15;;;1.15;;
15071;SDS011;7635;56.696;13.002;2022-09-09T00:27:00;1.42;;;1.33;;
15071;SDS011;7635;56.696;13.002;2022-09-09T00:29:33;1.50;;;1.25;;
15071;SDS011;7635;56.696;13.002;2022-09-09T00:32:10;1.83;;;1.55;;
15071;SDS011;7635;56.696;13.002;2022-09-09T00:34:41;1.83;;;0.90;;
15071;SDS011;7635;56.696;13.002;2022-09-09T00:37:13;1.50;;;1.40;;
15071;SDS011;7635;56.696;13.002;2022-09-09T00:39:41;1.45;;;1.23;;
15071;SDS011;7635;56.696;13.002;2022-09-09T00:42:13;1.33;;;1.23;;
15071;SDS011;7635;56.696;13.002;2022-09-09T00:44:53;1.52;;;1.42;;
15071;SDS011;7635;56.696;13.002;2022-09-09T00:47:33;1.20;;;1.10;;
15071;SDS011;7635;56.696;13.002;2022-09-09T00:50:12;1.42;;;1.33;;
15071;SDS011;7635;56.696;13.002;2022-09-09T00:52:52;1.48;;;1.38;;
15071;SDS011;7635;56.696;13.002;2022-09-09T00:55:26;1.50;;;1.40;;
15071;SDS011;7635;56.696;13.002;2022-09-09T00:57:59;1.42;;;1.33;;
15071;SDS011;7635;56.696;13.002;2022-09-09T01:00:27;1.30;;;1.20;;
15071;SDS011;7635;56.696;13.002;2022-09-09T01:03:02;1.70;;;1.40;;
15071;SDS011;7635;56.696;13.002;2022-09-09T01:05:44;1.17;;;1.15;;
15071;SDS011;7635;56.696;13.002;2022-09-09T01:08:19;1.17;;;1.17;;
15071;SDS011;7635;56.696;13.002;2022-09-09T01:11:03;5.05;;;1.80;;
15071;SDS011;7635;56.696;13.002;2022-09-09T01:13:34;4.57;;;1.48;;
15071;SDS011;7635;56.696;13.002;2022-09-09T01:16:03;1.77;;;1.52;;
15071;SDS011;7635;56.696;13.002;2022-09-09T01:18:34;1.40;;;1.20;;
15071;SDS011;7635;56.696;13.002;2022-09-09T01:21:08;1.90;;;1.40;;
15071;SDS011;7635;56.696;13.002;2022-09-09T01:23:50;1.60;;;1.50;;
15071;SDS011;7635;56.696;13.002;2022-09-09T01:26:37;0.98;;;0.98;;
15071;SDS011;7635;56.696;13.002;2022-09-09T01:29:06;1.15;;;1.05;;
15071;SDS011;7635;56.696;13.002;2022-09-09T01:31:36;1.40;;;1.30;;
15071;SDS011;7635;56.696;13.002;2022-09-09T01:34:08;3.42;;;1.30;;
15071;SDS011;7635;56.696;13.002;2022-09-09T01:36:37;3.58;;;1.58;;
15071;SDS011;7635;56.696;13.002;2022-09-09T01:39:08;1.50;;;1.40;;
15071;SDS011;7635;56.696;13.002;2022-09-09T01:41:36;1.40;;;1.27;;
15071;SDS011;7635;56.696;13.002;2022-09-09T01:44:04;2.38;;;1.60;;
15071;SDS011;7635;56.696;13.002;2022-09-09T01:46:31;1.27;;;1.20;;
15071;SDS011;7635;56.696;13.002;2022-09-09T01:48:58;1.65;;;1.50;;
15071;SDS011;7635;56.696;13.002;2022-09-09T01:51:28;2.08;;;1.50;;
15071;SDS011;7635;56.696;13.002;2022-09-09T01:53:55;2.75;;;1.50;;
15071;SDS011;7635;56.696;13.002;2022-09-09T01:56:25;3.00;;;1.50;;
15071;SDS011;7635;56.696;13.002;2022-09-09T01:59:09;1.48;;;1.23;;
15071;SDS011;7635;56.696;13.002;2022-09-09T02:01:51;1.80;;;1.27;;
15071;SDS011;7635;56.696;13.002;2022-09-09T02:04:37;1.23;;;1.20;;
15071;SDS011;7635;56.696;13.002;2022-09-09T02:07:08;3.05;;;1.27;;
15071;SDS011;7635;56.696;13.002;2022-09-09T02:09:43;1.83;;;1.40;;
15071;SDS011;7635;56.696;13.002;2022-09-09T02:12:16;1.40;;;1.30;;
15071;SDS011;7635;56.696;13.002;2022-09-09T02:14:52;1.30;;;1.20;;
15071;SDS011;7635;56.696;13.002;2022-09-09T02:17:27;0.60;;;0.60;;
15071;SDS011;7635;56.696;13.002;2022-09-09T02:19:59;1.50;;;1.13;;
15071;SDS011;7635;56.696;13.002;2022-09-09T02:22:31;2.35;;;1.40;;
15071;SDS011;7635;56.696;13.002;2022-09-09T02:25:00;2.05;;;1.48;;
15071;SDS011;7635;56.696;13.002;2022-09-09T02:27:28;1.10;;;1.10;;
15071;SDS011;7635;56.696;13.002;2022-09-09T02:29:57;1.50;;;1.40;;
15071;SDS011;7635;56.696;13.002;2022-09-09T02:32:27;2.78;;;1.38;;
15071;SDS011;7635;56.696;13.002;2022-09-09T02:34:58;3.38;;;1.50;;
15071;SDS011;7635;56.696;13.002;2022-09-09T02:37:29;3.53;;;1.67;;
15071;SDS011;7635;56.696;13.002;2022-09-09T02:40:01;3.58;;;1.75;;
15071;SDS011;7635;56.696;13.002;2022-09-09T02:42:28;1.95;;;1.75;;
15071;SDS011;7635;56.696;13.002;2022-09-09T02:44:56;1.33;;;1.23;;
15071;SDS011;7635;56.696;13.002;2022-09-09T02:47:25;1.42;;;1.25;;
15071;SDS011;7635;56.696;13.002;2022-09-09T02:49:57;1.42;;;1.33;;
15071;SDS011;7635;56.696;13.002;2022-09-09T02:52:31;1.40;;;1.30;;
15071;SDS011;7635;56.696;13.002;2022-09-09T02:55:04;0.90;;;0.90;;
15071;SDS011;7635;56.696;13.002;2022-09-09T02:57:34;2.28;;;1.77;;
15071;SDS011;7635;56.696;13.002;2022-09-09T03:00:04;1.48;;;1.38;;
15071;SDS011;7635;56.696;13.002;2022-09-09T03:02:31;2.20;;;1.40;;
15071;SDS011;7635;56.696;13.002;2022-09-09T03:04:58;2.67;;;1.25;;
15071;SDS011;7635;56.696;13.002;2022-09-09T03:07:25;1.70;;;1.50;;
15071;SDS011;7635;56.696;13.002;2022-09-09T03:09:52;2.17;;;1.75;;
15071;SDS011;7635;56.696;13.002;2022-09-09T03:12:19;1.50;;;1.40;;
15071;SDS011;7635;56.696;13.002;2022-09-09T03:14:46;3.05;;;1.70;;
15071;SDS011;7635;56.696;13.002;2022-09-09T03:17:14;2.60;;;1.38;;
15071;SDS011;7635;56.696;13.002;2022-09-09T03:19:41;3.70;;;1.45;;
15071;SDS011;7635;56.696;13.002;2022-09-09T03:22:09;1.63;;;1.52;;
15071;SDS011;7635;56.696;13.002;2022-09-09T03:24:36;1.63;;;1.52;;
15071;SDS011;7635;56.696;13.002;2022-09-09T03:27:03;3.22;;;1.40;;
15071;SDS011;7635;56.696;13.002;2022-09-09T03:29:30;4.28;;;1.52;;
15071;SDS011;7635;56.696;13.002;2022-09-09T03:31:56;1.55;;;1.40;;
15071;SDS011;7635;56.696;13.002;2022-09-09T03:34:24;2.80;;;1.85;;
15071;SDS011;7635;56.696;13.002;2022-09-09T03:36:52;2.78;;;1.50;;
15071;SDS011;7635;56.696;13.002;2022-09-09T03:39:18;1.83;;;1.40;;
15071;SDS011;7635;56.696;13.002;2022-09-09T03:41:45;1.50;;;1.40;;
15071;SDS011;7635;56.696;13.002;2022-09-09T03:44:13;1.58;;;1.48;;
15071;SDS011;7635;56.696;13.002;2022-09-09T03:46:40;1.88;;;1.50;;
15071;SDS011;7635;56.696;13.002;2022-09-09T03:49:06;1.95;;;1.65;;
15071;SDS011;7635;56.696;13.002;2022-09-09T03:51:36;1.50;;;1.40;;
15071;SDS011;7635;56.696;13.002;2022-09-09T03:54:03;3.55;;;1.70;;
15071;SDS011;7635;56.696;13.002;2022-09-09T03:56:33;1.52;;;1.42;;
15071;SDS011;7635;56.696;13.002;2022-09-09T03:59:00;1.92;;;1.45;;
15071;SDS011;7635;56.696;13.002;2022-09-09T04:01:27;1.95;;;1.60;;
15071;SDS011;7635;56.696;13.002;2022-09-09T04:03:54;2.70;;;1.58;;
15071;SDS011;7635;56.696;13.002;2022-09-09T04:06:23;2.15;;;1.83;;
15071;SDS011;7635;56.696;13.002;2022-09-09T04:08:52;2.17;;;1.80;;
15071;SDS011;7635;56.696;13.002;2022-09-09T04:11:20;2.03;;;1.83;;
15071;SDS011;7635;56.696;13.002;2022-09-09T04:13:47;4.28;;;1.90;;
15071;SDS011;7635;56.696;13.002;2022-09-09T04:16:14;2.38;;;1.67;;
15071;SDS011;7635;56.696;13.002;2022-09-09T04:18:42;2.60;;;1.77;;
15071;SDS011;7635;56.696;13.002;2022-09-09T04:21:09;1.75;;;1.65;;
15071;SDS011;7635;56.696;13.002;2022-09-09T04:23:37;3.47;;;1.80;;
15071;SDS011;7635;56.696;13.002;2022-09-09T04:26:06;1.45;;;1.35;;
15071;SDS011;7635;56.696;13.002;2022-09-09T04:28:34;4.97;;;1.70;;
15071;SDS011;7635;56.696;13.002;2022-09-09T04:31:05;1.90;;;1.67;;
15071;SDS011;7635;56.696;13.002;2022-09-09T04:33:34;1.85;;;1.58;;
15071;SDS011;7635;56.696;13.002;2022-09-09T04:36:01;4.20;;;1.73;;
15071;SDS011;7635;56.696;13.002;2022-09-09T04:38:28;2.05;;;1.85;;
15071;SDS011;7635;56.696;13.002;2022-09-09T04:40:55;2.25;;;1.70;;
15071;SDS011;7635;56.696;13.002;2022-09-09T04:43:23;3.03;;;2.08;;
15071;SDS011;7635;56.696;13.002;2022-09-09T04:45:51;5.30;;;1.80;;
15071;SDS011;7635;56.696;13.002;2022-09-09T04:48:18;0.98;;;0.98;;
15071;SDS011;7635;56.696;13.002;2022-09-09T04:50:53;2.33;;;1.80;;
15071;SDS011;7635;56.696;13.002;2022-09-09T04:53:20;3.53;;;2.10;;
15071;SDS011;7635;56.696;13.002;2022-09-09T04:55:47;2.83;;;1.80;;
15071;SDS011;7635;56.696;13.002;2022-09-09T04:58:14;1.83;;;1.55;;
15071;SDS011;7635;56.696;13.002;2022-09-09T05:00:42;3.75;;;1.80;;
15071;SDS011;7635;56.696;13.002;2022-09-09T05:03:09;2.13;;;1.70;;
15071;SDS011;7635;56.696;13.002;2022-09-09T05:05:37;2.78;;;2.05;;
15071;SDS011;7635;56.696;13.002;2022-09-09T05:08:05;0.88;;;0.75;;
15071;SDS011;7635;56.696;13.002;2022-09-09T05:10:33;2.45;;;1.85;;
15071;SDS011;7635;56.696;13.002;2022-09-09T05:13:02;2.42;;;1.38;;
15071;SDS011;7635;56.696;13.002;2022-09-09T05:15:30;2.10;;;1.90;;
15071;SDS011;7635;56.696;13.002;2022-09-09T05:17:59;1.83;;;1.58;;
15071;SDS011;7635;56.696;13.002;2022-09-09T05:20:27;1.30;;;1.20;;
15071;SDS011;7635;56.696;13.002;2022-09-09T05:22:54;1.70;;;1.60;;
15071;SDS011;7635;56.696;13.002;2022-09-09T05:25:22;4.35;;;1.88;;
15071;SDS011;7635;56.696;13.002;2022-09-09T05:27:50;2.63;;;2.00;;
15071;SDS011;7635;56.696;13.002;2022-09-09T05:30:17;1.95;;;1.65;;
15071;SDS011;7635;56.696;13.002;2022-09-09T05:32:44;1.30;;;1.20;;
15071;SDS011;7635;56.696;13.002;2022-09-09T05:35:14;3.05;;;1.75;;
15071;SDS011;7635;56.696;13.002;2022-09-09T05:37:41;2.28;;;1.55;;
15071;SDS011;7635;56.696;13.002;2022-09-09T05:40:08;2.65;;;1.90;;
15071;SDS011;7635;56.696;13.002;2022-09-09T05:42:35;0.98;;;0.98;;
15071;SDS011;7635;56.696;13.002;2022-09-09T05:45:04;1.80;;;1.58;;
15071;SDS011;7635;56.696;13.002;2022-09-09T05:47:32;3.00;;;1.45;;
15071;SDS011;7635;56.696;13.002;2022-09-09T05:49:59;4.03;;;1.88;;
15071;SDS011;7635;56.696;13.002;2022-09-09T05:52:27;2.42;;;1.90;;
15071;SDS011;7635;56.696;13.002;2022-09-09T05:54:54;2.45;;;1.75;;
15071;SDS011;7635;56.696;13.002;2022-09-09T05:57:22;1.95;;;1.75;;
15071;SDS011;7635;56.696;13.002;2022-09-09T05:59:48;3.13;;;1.83;;
15071;SDS011;7635;56.696;13.002;2022-09-09T06:02:15;2.10;;;1.70;;
15071;SDS011;7635;56.696;13.002;2022-09-09T06:04:42;3.20;;;1.90;;
15071;SDS011;7635;56.696;13.002;2022-09-09T06:07:09;2.17;;;2.05;;
15071;SDS011;7635;56.696;13.002;2022-09-09T06:09:37;3.00;;;1.73;;
15071;SDS011;7635;56.696;13.002;2022-09-09T06:12:04;3.42;;;1.88;;
15071;SDS011;7635;56.696;13.002;2022-09-09T06:14:31;3.47;;;1.73;;
15071;SDS011;7635;56.696;13.002;2022-09-09T06:16:57;2.13;;;1.92;;
15071;SDS011;7635;56.696;13.002;2022-09-09T06:19:24;2.03;;;1.70;;
15071;SDS011;7635;56.696;13.002;2022-09-09T06:21:52;2.95;;;1.98;;
15071;SDS011;7635;56.696;13.002;2022-09-09T06:24:19;2.13;;;1.75;;
15071;SDS011;7635;56.696;13.002;2022-09-09T06:26:48;2.80;;;1.80;;
15071;SDS011;7635;56.696;13.002;2022-09-09T06:29:15;2.28;;;1.85;;
15071;SDS011;7635;56.696;13.002;2022-09-09T06:31:42;4.20;;;2.42;;
15071;SDS011;7635;56.696;13.002;2022-09-09T06:34:08;2.03;;;1.63;;
15071;SDS011;7635;56.696;13.002;2022-09-09T06:36:36;2.28;;;2.00;;
15071;SDS011;7635;56.696;13.002;2022-09-09T06:39:04;3.33;;;1.70;;
15071;SDS011;7635;56.696;13.002;2022-09-09T06:41:33;3.15;;;1.95;;
15071;SDS011;7635;56.696;13.002;2022-09-09T06:44:02;1.70;;;1.60;;
15071;SDS011;7635;56.696;13.002;2022-09-09T06:46:29;2.83;;;1.98;;
15071;SDS011;7635;56.696;13.002;2022-09-09T06:48:58;1.60;;;1.30;;
15071;SDS011;7635;56.696;13.002;2022-09-09T06:51:25;5.63;;;2.08;;
15071;SDS011;7635;56.696;13.002;2022-09-09T06:53:54;1.45;;;1.35;;
15071;SDS011;7635;56.696;13.002;2022-09-09T06:56:22;5.40;;;2.03;;
15071;SDS011;7635;56.696;13.002;2022-09-09T06:58:51;2.80;;;2.10;;
15071;SDS011;7635;56.696;13.002;2022-09-09T07:01:21;2.10;;;1.85;;
15071;SDS011;7635;56.696;13.002;2022-09-09T07:03:50;2.63;;;1.45;;
15071;SDS011;7635;56.696;13.002;2022-09-09T07:06:18;3.10;;;2.13;;
15071;SDS011;7635;56.696;13.002;2022-09-09T07:08:49;2.25;;;1.85;;
15071;SDS011;7635;56.696;13.002;2022-09-09T07:11:17;2.83;;;1.77;;
15071;SDS011;7635;56.696;13.002;2022-09-09T07:13:45;3.17;;;1.23;;
15071;SDS011;7635;56.696;13.002;2022-09-09T07:16:13;2.50;;;1.83;;
15071;SDS011;7635;56.696;13.002;2022-09-09T07:18:42;3.13;;;1.73;;
15071;SDS011;7635;56.696;13.002;2022-09-09T07:21:10;3.85;;;1.70;;
15071;SDS011;7635;56.696;13.002;2022-09-09T07:23:38;2.60;;;1.92;;
15071;SDS011;7635;56.696;13.002;2022-09-09T07:26:07;2.42;;;2.22;;
15071;SDS011;7635;56.696;13.002;2022-09-09T07:28:36;3.47;;;2.05;;
15071;SDS011;7635;56.696;13.002;2022-09-09T07:31:04;2.78;;;2.00;;
15071;SDS011;7635;56.696;13.002;2022-09-09T07:33:32;1.98;;;1.83;;
15071;SDS011;7635;56.696;13.002;2022-09-09T07:36:04;2.33;;;1.77;;
15071;SDS011;7635;56.696;13.002;2022-09-09T07:38:32;1.58;;;1.48;;
15071;SDS011;7635;56.696;13.002;2022-09-09T07:41:03;2.47;;;1.85;;
15071;SDS011;7635;56.696;13.002;2022-09-09T07:43:31;4.63;;;1.58;;
15071;SDS011;7635;56.696;13.002;2022-09-09T07:45:59;2.40;;;1.60;;
15071;SDS011;7635;56.696;13.002;2022-09-09T07:48:27;4.00;;;1.90;;
15071;SDS011;7635;56.696;13.002;2022-09-09T07:51:03;3.92;;;1.67;;
15071;SDS011;7635;56.696;13.002;2022-09-09T07:53:35;3.90;;;1.73;;
15071;SDS011;7635;56.696;13.002;2022-09-09T07:56:03;4.38;;;2.10;;
15071;SDS011;7635;56.696;13.002;2022-09-09T07:58:32;4.47;;;2.30;;
15071;SDS011;7635;56.696;13.002;2022-09-09T08:00:59;3.03;;;1.98;;
15071;SDS011;7635;56.696;13.002;2022-09-09T08:03:25;1.65;;;1.55;;
15071;SDS011;7635;56.696;13.002;2022-09-09T08:05:52;3.53;;;2.30;;
15071;SDS011;7635;56.696;13.002;2022-09-09T08:08:27;2.25;;;1.70;;
15071;SDS011;7635;56.696;13.002;2022-09-09T08:11:00;1.95;;;1.52;;
15071;SDS011;7635;56.696;13.002;2022-09-09T08:13:28;1.88;;;1.60;;
15071;SDS011;7635;56.696;13.002;2022-09-09T08:16:02;2.85;;;1.88;;
15071;SDS011;7635;56.696;13.002;2022-09-09T08:18:30;4.57;;;2.35;;
15071;SDS011;7635;56.696;13.002;2022-09-09T08:20:57;2.40;;;1.92;;
15071;SDS011;7635;56.696;13.002;2022-09-09T08:23:24;2.58;;;1.50;;
15071;SDS011;7635;56.696;13.002;2022-09-09T08:25:52;2.35;;;1.92;;
15071;SDS011;7635;56.696;13.002;2022-09-09T08:28:18;3.63;;;2.05;;
15071;SDS011;7635;56.696;13.002;2022-09-09T08:30:45;4.60;;;1.90;;
15071;SDS011;7635;56.696;13.002;2022-09-09T08:33:13;1.85;;;1.70;;
15071;SDS011;7635;56.696;13.002;2022-09-09T08:35:39;3.22;;;1.88;;
15071;SDS011;7635;56.696;13.002;2022-09-09T08:38:17;3.28;;;1.90;;
15071;SDS011;7635;56.696;13.002;2022-09-09T08:40:44;1.73;;;1.63;;
15071;SDS011;7635;56.696;13.002;2022-09-09T08:43:15;2.40;;;1.90;;
15071;SDS011;7635;56.696;13.002;2022-09-09T08:45:46;2.03;;;1.80;;
15071;SDS011;7635;56.696;13.002;2022-09-09T08:48:31;2.13;;;1.70;;
15071;SDS011;7635;56.696;13.002;2022-09-09T08:51:10;3.05;;;2.20;;
15071;SDS011;7635;56.696;13.002;2022-09-09T08:53:38;2.88;;;1.75;;
15071;SDS011;7635;56.696;13.002;2022-09-09T08:56:09;3.25;;;1.83;;
15071;SDS011;7635;56.696;13.002;2022-09-09T08:58:42;3.80;;;1.90;;
15071;SDS011;7635;56.696;13.002;2022-09-09T09:01:17;5.53;;;2.38;;
15071;SDS011;7635;56.696;13.002;2022-09-09T09:04:00;1.92;;;1.60;;
15071;SDS011;7635;56.696;13.002;2022-09-09T09:06:37;3.55;;;2.03;;
15071;SDS011;7635;56.696;13.002;2022-09-09T09:09:11;2.30;;;2.10;;
15071;SDS011;7635;56.696;13.002;2022-09-09T09:11:45;5.75;;;1.88;;
15071;SDS011;7635;56.696;13.002;2022-09-09T09:14:16;2.08;;;1.90;;
15071;SDS011;7635;56.696;13.002;2022-09-09T09:16:48;3.28;;;2.20;;
15071;SDS011;7635;56.696;13.002;2022-09-09T09:19:19;2.53;;;1.67;;
15071;SDS011;7635;56.696;13.002;2022-09-09T09:21:48;3.00;;;1.77;;
15071;SDS011;7635;56.696;13.002;2022-09-09T09:24:20;2.08;;;1.90;;
15071;SDS011;7635;56.696;13.002;2022-09-09T09:26:49;2.40;;;2.20;;
15071;SDS011;7635;56.696;13.002;2022-09-09T09:29:19;2.30;;;1.98;;
15071;SDS011;7635;56.696;13.002;2022-09-09T09:31:48;2.30;;;2.10;;
15071;SDS011;7635;56.696;13.002;2022-09-09T09:34:19;3.72;;;2.22;;
15071;SDS011;7635;56.696;13.002;2022-09-09T09:36:52;2.10;;;1.73;;
15071;SDS011;7635;56.696;13.002;2022-09-09T09:39:24;3.05;;;1.85;;
15071;SDS011;7635;56.696;13.002;2022-09-09T09:41:52;2.63;;;2.00;;
15071;SDS011;7635;56.696;13.002;2022-09-09T09:44:24;1.80;;;1.70;;
15071;SDS011;7635;56.696;13.002;2022-09-09T09:46:53;2.08;;;1.88;;
15071;SDS011;7635;56.696;13.002;2022-09-09T09:49:32;2.70;;;2.10;;
15071;SDS011;7635;56.696;13.002;2022-09-09T09:51:59;3.97;;;2.60;;
15071;SDS011;7635;56.696;13.002;2022-09-09T09:54:27;2.10;;;1.90;;
15071;SDS011;7635;56.696;13.002;2022-09-09T09:56:55;2.70;;;2.10;;
15071;SDS011;7635;56.696;13.002;2022-09-09T09:59:35;2.50;;;2.30;;
15071;SDS011;7635;56.696;13.002;2022-09-09T10:02:13;2.22;;;2.00;;
15071;SDS011;7635;56.696;13.002;2022-09-09T10:04:42;4.00;;;1.75;;
15071;SDS011;7635;56.696;13.002;2022-09-09T10:07:10;1.88;;;1.77;;
15071;SDS011;7635;56.696;13.002;2022-09-09T10:09:37;2.20;;;2.00;;
15071;SDS011;7635;56.696;13.002;2022-09-09T10:12:06;1.75;;;1.65;;
15071;SDS011;7635;56.696;13.002;2022-09-09T10:14:46;2.05;;;1.88;;
15071;SDS011;7635;56.696;13.002;2022-09-09T10:17:20;2.42;;;1.88;;
15071;SDS011;7635;56.696;13.002;2022-09-09T10:19:58;1.95;;;1.75;;
15071;SDS011;7635;56.696;13.002;2022-09-09T10:22:39;1.65;;;1.55;;
15071;SDS011;7635;56.696;13.002;2022-09-09T10:25:25;1.73;;;1.63;;
15071;SDS011;7635;56.696;13.002;2022-09-09T10:28:08;1.48;;;1.38;;
15071;SDS011;7635;56.696;13.002;2022-09-09T10:30:49;1.90;;;1.50;;
15071;SDS011;7635;56.696;13.002;2022-09-09T10:33:25;2.30;;;1.70;;
15071;SDS011;7635;56.696;13.002;2022-09-09T10:36:00;2.50;;;1.90;;
15071;SDS011;7635;56.696;13.002;2022-09-09T10:38:37;1.70;;;1.60;;
15071;SDS011;7635;56.696;13.002;2022-09-09T10:41:19;2.70;;;1.83;;
15071;SDS011;7635;56.696;13.002;2022-09-09T10:43:59;1.58;;;1.48;;
15071;SDS011;7635;56.696;13.002;2022-09-09T10:46:43;1.48;;;1.38;;
15071;SDS011;7635;56.696;13.002;2022-09-09T10:49:22;2.38;;;1.80;;
15071;SDS011;7635;56.696;13.002;2022-09-09T10:52:01;1.75;;;1.60;;
15071;SDS011;7635;56.696;13.002;2022-09-09T10:54:44;1.60;;;1.50;;
15071;SDS011;7635;56.696;13.002;2022-09-09T10:57:21;1.17;;;1.08;;
15071;SDS011;7635;56.696;13.002;2022-09-09T10:59:54;2.00;;;1.80;;
15071;SDS011;7635;56.696;13.002;2022-09-09T11:02:26;1.40;;;1.30;;
15071;SDS011;7635;56.696;13.002;2022-09-09T11:04:55;1.65;;;1.55;;
15071;SDS011;7635;56.696;13.002;2022-09-09T11:07:28;1.60;;;1.38;;
15071;SDS011;7635;56.696;13.002;2022-09-09T11:10:02;1.65;;;1.55;;
15071;SDS011;7635;56.696;13.002;2022-09-09T11:12:32;2.13;;;1.80;;
15071;SDS011;7635;56.696;13.002;2022-09-09T11:15:05;1.40;;;1.30;;
15071;SDS011;7635;56.696;13.002;2022-09-09T11:17:40;2.15;;;1.55;;
15071;SDS011;7635;56.696;13.002;2022-09-09T11:20:12;1.65;;;1.40;;
15071;SDS011;7635;56.696;13.002;2022-09-09T11:22:40;1.40;;;1.30;;
15071;SDS011;7635;56.696;13.002;2022-09-09T11:25:14;2.17;;;1.35;;
15071;SDS011;7635;56.696;13.002;2022-09-09T11:27:48;1.63;;;1.52;;
15071;SDS011;7635;56.696;13.002;2022-09-09T11:30:25;1.35;;;1.25;;
15071;SDS011;7635;56.696;13.002;2022-09-09T11:33:04;1.50;;;1.40;;
15071;SDS011;7635;56.696;13.002;2022-09-09T11:36:01;1.30;;;1.20;;
15071;SDS011;7635;56.696;13.002;2022-09-09T11:38:44;1.58;;;1.48;;
15071;SDS011;7635;56.696;13.002;2022-09-09T11:41:12;2.80;;;1.60;;
15071;SDS011;7635;56.696;13.002;2022-09-09T11:43:41;1.42;;;1.25;;
15071;SDS011;7635;56.696;13.002;2022-09-09T11:46:10;1.02;;;1.02;;
15071;SDS011;7635;56.696;13.002;2022-09-09T11:48:42;1.70;;;1.50;;
15071;SDS011;7635;56.696;13.002;2022-09-09T11:51:11;1.42;;;1.30;;
15071;SDS011;7635;56.696;13.002;2022-09-09T11:53:51;1.27;;;1.17;;
15071;SDS011;7635;56.696;13.002;2022-09-09T11:56:26;1.42;;;1.33;;
15071;SDS011;7635;56.696;13.002;2022-09-09T11:59:00;1.23;;;1.20;;
15071;SDS011;7635;56.696;13.002;2022-09-09T12:01:35;1.58;;;1.48;;
15071;SDS011;7635;56.696;13.002;2022-09-09T12:04:21;1.20;;;1.10;;
15071;SDS011;7635;56.696;13.002;2022-09-09T12:07:02;0.90;;;0.90;;
15071;SDS011;7635;56.696;13.002;2022-09-09T12:09:39;1.77;;;1.30;;
15071;SDS011;7635;56.696;13.002;2022-09-09T12:12:23;1.40;;;1.30;;
15071;SDS011;7635;56.696;13.002;2022-09-09T12:14:56;2.40;;;1.20;;
15071;SDS011;7635;56.696;13.002;2022-09-09T12:17:26;2.22;;;1.45;;
15071;SDS011;7635;56.696;13.002;2022-09-09T12:20:02;1.35;;;1.25;;
15071;SDS011;7635;56.696;13.002;2022-09-09T12:22:35;1.30;;;1.20;;
15071;SDS011;7635;56.696;13.002;2022-09-09T12:25:09;1.30;;;1.20;;
15071;SDS011;7635;56.696;13.002;2022-09-09T12:27:50;2.80;;;1.25;;
15071;SDS011;7635;56.696;13.002;2022-09-09T12:30:28;1.10;;;1.05;;
15071;SDS011;7635;56.696;13.002;2022-09-09T12:33:01;1.67;;;1.10;;
15071;SDS011;7635;56.696;13.002;2022-09-09T12:35:31;1.27;;;1.02;;
15071;SDS011;7635;56.696;13.002;2022-09-09T12:37:58;0.98;;;0.98;;
15071;SDS011;7635;56.696;13.002;2022-09-09T12:40:29;1.40;;;1.30;;
15071;SDS011;7635;56.696;13.002;2022-09-09T12:42:57;1.02;;;1.02;;
15071;SDS011;7635;56.696;13.002;2022-09-09T12:45:26;1.10;;;1.00;;
15071;SDS011;7635;56.696;13.002;2022-09-09T12:47:55;1.38;;;1.27;;
15071;SDS011;7635;56.696;13.002;2022-09-09T12:50:26;1.10;;;1.00;;
15071;SDS011;7635;56.696;13.002;2022-09-09T12:52:57;1.38;;;1.27;;
15071;SDS011;7635;56.696;13.002;2022-09-09T12:55:27;1.00;;;1.00;;
15071;SDS011;7635;56.696;13.002;2022-09-09T12:57:58;1.45;;;1.35;;
15071;SDS011;7635;56.696;13.002;2022-09-09T13:00:29;1.10;;;1.10;;
15071;SDS011;7635;56.696;13.002;2022-09-09T13:02:56;1.10;;;1.10;;
15071;SDS011;7635;56.696;13.002;2022-09-09T13:05:25;1.00;;;1.00;;
15071;SDS011;7635;56.696;13.002;2022-09-09T13:08:01;1.08;;;1.08;;
15071;SDS011;7635;56.696;13.002;2022-09-09T13:10:32;1.17;;;1.17;;
15071;SDS011;7635;56.696;13.002;2022-09-09T13:13:03;0.90;;;0.90;;
15071;SDS011;7635;56.696;13.002;2022-09-09T13:15:32;0.90;;;0.90;;
15071;SDS011;7635;56.696;13.002;2022-09-09T13:18:00;0.93;;;0.93;;
15071;SDS011;7635;56.696;13.002;2022-09-09T13:20:31;0.88;;;0.88;;
15071;SDS011;7635;56.696;13.002;2022-09-09T13:22:58;1.10;;;1.10;;
15071;SDS011;7635;56.696;13.002;2022-09-09T13:25:27;1.15;;;1.13;;
15071;SDS011;7635;56.696;13.002;2022-09-09T13:27:56;0.90;;;0.90;;
15071;SDS011;7635;56.696;13.002;2022-09-09T13:30:28;0.90;;;0.90;;
15071;SDS011;7635;56.696;13.002;2022-09-09T13:33:04;1.00;;;1.00;;
15071;SDS011;7635;56.696;13.002;2022-09-09T13:35:45;1.08;;;0.85;;
15071;SDS011;7635;56.696;13.002;2022-09-09T13:38:14;0.90;;;0.90;;
15071;SDS011;7635;56.696;13.002;2022-09-09T13:40:52;1.13;;;1.13;;
15071;SDS011;7635;56.696;13.002;2022-09-09T13:43:22;0.90;;;0.90;;
15071;SDS011;7635;56.696;13.002;2022-09-09T13:45:54;1.65;;;1.10;;
15071;SDS011;7635;56.696;13.002;2022-09-09T13:48:23;0.90;;;0.90;;
15071;SDS011;7635;56.696;13.002;2022-09-09T13:50:54;1.05;;;0.77;;
15071;SDS011;7635;56.696;13.002;2022-09-09T13:53:24;0.93;;;0.93;;
15071;SDS011;7635;56.696;13.002;2022-09-09T13:55:53;2.13;;;1.02;;
15071;SDS011;7635;56.696;13.002;2022-09-09T13:58:22;1.05;;;1.00;;
15071;SDS011;7635;56.696;13.002;2022-09-09T14:00:50;1.00;;;1.00;;
15071;SDS011;7635;56.696;13.002;2022-09-09T14:03:17;1.33;;;1.20;;
15071;SDS011;7635;56.696;13.002;2022-09-09T14:05:44;1.10;;;1.10;;
15071;SDS011;7635;56.696;13.002;2022-09-09T14:08:15;1.00;;;1.00;;
15071;SDS011;7635;56.696;13.002;2022-09-09T14:10:47;1.13;;;1.13;;
15071;SDS011;7635;56.696;13.002;2022-09-09T14:13:15;1.33;;;1.15;;
15071;SDS011;7635;56.696;13.002;2022-09-09T14:15:42;0.90;;;0.90;;
15071;SDS011;7635;56.696;13.002;2022-09-09T14:18:09;1.48;;;1.38;;
15071;SDS011;7635;56.696;13.002;2022-09-09T14:20:39;1.30;;;1.23;;
15071;SDS011;7635;56.696;13.002;2022-09-09T14:23:07;1.50;;;1.40;;
15071;SDS011;7635;56.696;13.002;2022-09-09T14:25:38;1.20;;;1.20;;
15071;SDS011;7635;56.696;13.002;2022-09-09T14:28:07;1.30;;;1.20;;
15071;SDS011;7635;56.696;13.002;2022-09-09T14:30:37;1.35;;;1.30;;
15071;SDS011;7635;56.696;13.002;2022-09-09T14:33:05;1.40;;;1.30;;
15071;SDS011;7635;56.696;13.002;2022-09-09T14:35:33;1.00;;;1.00;;
15071;SDS011;7635;56.696;13.002;2022-09-09T14:38:01;1.00;;;1.00;;
15071;SDS011;7635;56.696;13.002;2022-09-09T14:40:28;1.25;;;1.15;;
15071;SDS011;7635;56.696;13.002;2022-09-09T14:42:55;1.10;;;1.10;;
15071;SDS011;7635;56.696;13.002;2022-09-09T14:45:22;2.05;;;1.40;;
15071;SDS011;7635;56.696;13.002;2022-09-09T14:47:51;1.27;;;1.23;;
15071;SDS011;7635;56.696;13.002;2022-09-09T14:50:18;1.42;;;1.33;;
15071;SDS011;7635;56.696;13.002;2022-09-09T14:52:45;1.30;;;1.20;;
15071;SDS011;7635;56.696;13.002;2022-09-09T14:55:12;1.27;;;1.20;;
15071;SDS011;7635;56.696;13.002;2022-09-09T14:57:39;1.35;;;1.25;;
15071;SDS011;7635;56.696;13.002;2022-09-09T15:00:06;4.00;;;1.20;;
15071;SDS011;7635;56.696;13.002;2022-09-09T15:02:34;1.30;;;1.20;;
15071;SDS011;7635;56.696;13.002;2022-09-09T15:05:03;1.20;;;1.15;;
15071;SDS011;7635;56.696;13.002;2022-09-09T15:07:30;1.52;;;1.40;;
15071;SDS011;7635;56.696;13.002;2022-09-09T15:09:57;1.60;;;1.50;;